createdAt,value
2018-09-17T00:02:23.726Z,86.13
2018-09-17T00:05:23.731Z,86.22
2018-09-17T00:08:23.664Z,86.16
2018-09-17T00:11:23.654Z,86.55
2018-09-17T00:14:23.617Z,88.22
2018-09-17T00:17:23.590Z,89.45
2018-09-17T00:20:23.499Z,89.34
2018-09-17T00:23:23.522Z,88.47
2018-09-17T00:26:23.452Z,88.51
2018-09-17T00:29:24.240Z,90.35
2018-09-17T00:32:23.404Z,89.86
2018-09-17T00:35:23.346Z,87.02
2018-09-17T00:38:23.332Z,85.86
2018-09-17T00:41:23.301Z,85.14
2018-09-17T00:44:24.247Z,84.59
2018-09-17T00:47:23.213Z,83.58
2018-09-17T00:50:23.183Z,82.46
2018-09-17T00:53:23.161Z,82.05
2018-09-17T00:56:23.138Z,82.18
2018-09-17T00:59:23.093Z,81.57
2018-09-17T01:02:23.042Z,80.96
2018-09-17T01:05:23.003Z,80.82
2018-09-17T01:08:23.006Z,80.51
2018-09-17T01:11:22.967Z,81.06
2018-09-17T01:14:22.913Z,80.65
2018-09-17T01:17:22.878Z,81.67
2018-09-17T01:20:22.822Z,81.77
2018-09-17T01:23:22.827Z,81.77
2018-09-17T01:26:22.771Z,81.37
2018-09-17T01:29:22.742Z,81.87
2018-09-17T01:32:22.694Z,81.46
2018-09-17T01:35:22.685Z,80.76
2018-09-17T01:38:22.620Z,80.96
2018-09-17T01:41:22.617Z,81.37
2018-09-17T01:44:22.561Z,79.41
2018-09-17T01:47:24.220Z,84.04
2018-09-17T01:50:22.488Z,88.61
2018-09-17T01:53:22.490Z,88.96
2018-09-17T01:56:22.436Z,89.78
2018-09-17T01:59:22.418Z,90.70
2018-09-17T02:02:22.354Z,90.90
2018-09-17T02:05:22.352Z,89.94
2018-09-17T02:08:23.220Z,89.59
2018-09-17T02:11:22.265Z,88.47
2018-09-17T02:14:22.214Z,87.41
2018-09-17T02:17:22.207Z,88.32
2018-09-17T02:20:22.185Z,88.02
2018-09-17T02:23:22.129Z,87.20
2018-09-17T02:26:22.087Z,87.30
2018-09-17T02:29:22.095Z,86.24
2018-09-17T02:32:22.024Z,85.39
2018-09-17T02:35:22.012Z,84.47
2018-09-17T02:38:21.967Z,83.72
2018-09-17T02:41:21.908Z,84.67
2018-09-17T02:44:21.880Z,86.39
2018-09-17T02:47:21.833Z,87.71
2018-09-17T02:50:21.856Z,88.84
2018-09-17T02:53:21.846Z,88.78
2018-09-17T02:56:21.754Z,90.25
2018-09-17T02:59:23.241Z,89.94
2018-09-17T03:02:21.679Z,89.92
2018-09-17T03:05:21.649Z,90.68
2018-09-17T03:08:21.598Z,92.32
2018-09-17T03:11:23.225Z,94.10
2018-09-17T03:14:21.530Z,93.85
2018-09-17T03:17:21.715Z,92.52
2018-09-17T03:20:21.470Z,91.91
2018-09-17T03:23:21.449Z,91.78
2018-09-17T03:26:21.437Z,92.91
2018-09-17T03:29:23.227Z,94.08
2018-09-17T03:32:21.335Z,94.59
2018-09-17T03:35:21.363Z,95.97
2018-09-17T03:38:21.250Z,96.13
2018-09-17T03:41:21.240Z,94.54
2018-09-17T03:44:21.192Z,96.28
2018-09-17T03:47:21.155Z,96.63
2018-09-17T03:50:21.124Z,96.58
2018-09-17T03:53:21.118Z,96.28
2018-09-17T03:56:21.047Z,96.07
2018-09-17T03:59:21.035Z,96.53
2018-09-17T04:02:22.711Z,97.61
2018-09-17T04:05:20.959Z,97.81
2018-09-17T04:08:20.939Z,96.79
2018-09-17T04:11:20.877Z,96.53
2018-09-17T04:14:20.860Z,95.81
2018-09-17T04:17:20.835Z,95.95
2018-09-17T04:20:20.759Z,96.73
2018-09-17T04:23:20.765Z,96.94
2018-09-17T04:26:20.701Z,95.97
2018-09-17T04:29:20.710Z,96.17
2018-09-17T04:32:20.646Z,96.79
2018-09-17T04:35:20.664Z,94.48
2018-09-17T04:38:20.550Z,94.58
2018-09-17T04:41:20.590Z,95.29
2018-09-17T04:44:20.515Z,95.75
2018-09-17T04:47:20.500Z,97.55
2018-09-17T04:50:20.436Z,96.38
2018-09-17T04:53:20.411Z,95.82
2018-09-17T04:56:20.435Z,94.18
2018-09-17T04:59:20.373Z,94.80
2018-09-17T05:02:20.310Z,95.00
2018-09-17T05:05:20.334Z,95.97
2018-09-17T05:08:20.207Z,94.54
2018-09-17T05:11:20.219Z,96.23
2018-09-17T05:14:20.185Z,95.88
2018-09-17T05:17:20.144Z,93.73
2018-09-17T05:20:20.116Z,94.45
2018-09-17T05:23:20.098Z,94.10
2018-09-17T05:26:20.036Z,91.96
2018-09-17T05:29:20.002Z,86.59
2018-09-17T05:32:19.940Z,87.24
2018-09-17T05:35:19.936Z,88.51
2018-09-17T05:38:19.902Z,88.61
2018-09-17T05:41:19.871Z,88.26
2018-09-17T05:44:19.855Z,87.00
2018-09-17T05:47:19.827Z,86.59
2018-09-17T05:50:19.739Z,85.19
2018-09-17T05:53:21.717Z,84.19
2018-09-17T05:56:19.667Z,81.46
2018-09-17T05:59:19.663Z,78.00
2018-09-17T06:02:19.589Z,76.61
2018-09-17T06:05:21.210Z,74.37
2018-09-17T06:08:19.543Z,72.61
2018-09-17T06:11:19.599Z,69.71
2018-09-17T06:14:19.479Z,67.86
2018-09-17T06:17:19.464Z,65.88
2018-09-17T06:20:19.410Z,63.54
2018-09-17T06:23:19.454Z,61.83
2018-09-17T06:26:19.340Z,61.24
2018-09-17T06:29:21.227Z,60.44
2018-09-17T06:32:19.297Z,61.60
2018-09-17T06:35:21.177Z,63.90
2018-09-17T06:38:19.260Z,64.51
2018-09-17T06:41:19.222Z,63.81
2018-09-17T06:44:19.137Z,63.17
2018-09-17T06:47:20.113Z,65.78
2018-09-17T06:50:20.066Z,62.41
2018-09-17T06:53:19.043Z,63.40
2018-09-17T06:56:18.980Z,59.17
2018-09-17T06:59:18.967Z,58.72
2018-09-17T07:02:18.978Z,57.79
2018-09-17T07:05:18.961Z,55.37
2018-09-17T07:08:18.878Z,54.64
2018-09-17T07:11:20.682Z,54.64
2018-09-17T07:14:18.805Z,51.52
2018-09-17T07:17:18.755Z,49.53
2018-09-17T07:20:18.745Z,47.27
2018-09-17T07:23:18.763Z,47.94
2018-09-17T07:26:18.652Z,45.56
2018-09-17T07:29:18.651Z,43.54
2018-09-17T07:32:18.585Z,42.90
2018-09-17T07:35:18.603Z,42.68
2018-09-17T07:38:18.523Z,42.96
2018-09-17T07:41:18.713Z,43.00
2018-09-17T07:44:18.471Z,43.42
2018-09-17T07:47:18.440Z,43.30
2018-09-17T07:50:18.423Z,43.32
2018-09-17T07:53:18.397Z,41.53
2018-09-17T07:56:18.344Z,41.52
2018-09-17T07:59:18.314Z,40.41
2018-09-17T08:02:18.268Z,40.84
2018-09-17T08:05:18.253Z,39.50
2018-09-17T08:08:18.202Z,39.91
2018-09-17T08:11:18.172Z,37.78
2018-09-17T08:14:18.120Z,37.59
2018-09-17T08:17:19.677Z,37.30
2018-09-17T08:20:18.062Z,38.73
2018-09-17T08:23:19.733Z,37.90
2018-09-17T08:26:18.052Z,37.78
2018-09-17T08:29:18.085Z,37.15
2018-09-17T08:32:18.020Z,37.45
2018-09-17T08:35:17.991Z,40.13
2018-09-17T08:38:17.954Z,39.14
2018-09-17T08:41:17.974Z,37.94
2018-09-17T08:44:17.853Z,38.15
2018-09-17T08:47:17.847Z,38.92
2018-09-17T08:50:17.836Z,37.34
2018-09-17T08:53:17.752Z,39.58
2018-09-17T08:56:17.713Z,37.93
2018-09-17T08:59:17.663Z,39.85
2018-09-17T09:02:17.614Z,37.85
2018-09-17T09:05:17.591Z,37.52
2018-09-17T09:08:17.659Z,37.13
2018-09-17T09:11:17.532Z,35.91
2018-09-17T09:14:17.503Z,35.85
2018-09-17T09:17:19.204Z,36.78
2018-09-17T09:20:17.416Z,35.77
2018-09-17T09:23:17.413Z,35.08
2018-09-17T09:26:17.375Z,36.82
2018-09-17T09:29:17.364Z,35.76
2018-09-17T09:32:17.308Z,34.74
2018-09-17T09:35:17.288Z,33.05
2018-09-17T09:38:17.246Z,35.17
2018-09-17T09:41:19.187Z,32.93
2018-09-17T09:44:17.215Z,34.15
2018-09-17T09:47:17.150Z,34.54
2018-09-17T09:50:17.202Z,33.65
2018-09-17T09:53:17.160Z,35.61
2018-09-17T09:56:17.037Z,36.24
2018-09-17T09:59:20.078Z,37.52
2018-09-17T10:02:16.995Z,36.04
2018-09-17T10:05:16.968Z,35.05
2018-09-17T10:08:16.912Z,34.20
2018-09-17T10:11:16.911Z,32.69
2018-09-17T10:14:16.851Z,31.80
2018-09-17T10:17:16.861Z,30.94
2018-09-17T10:20:16.783Z,29.03
2018-09-17T10:23:16.784Z,28.63
2018-09-17T10:26:16.734Z,28.93
2018-09-17T10:29:16.719Z,29.55
2018-09-17T10:32:16.662Z,31.64
2018-09-17T10:35:16.663Z,31.23
2018-09-17T10:38:16.609Z,31.43
2018-09-17T10:41:16.614Z,29.85
2018-09-17T10:44:16.553Z,29.93
2018-09-17T10:47:16.541Z,29.37
2018-09-17T10:50:16.489Z,31.07
2018-09-17T10:53:16.492Z,28.78
2018-09-17T10:56:16.434Z,29.57
2018-09-17T10:59:16.415Z,28.27
2018-09-17T11:02:16.410Z,28.96
2018-09-17T11:05:16.375Z,29.83
2018-09-17T11:08:16.356Z,28.45
2018-09-17T11:11:16.293Z,28.57
2018-09-17T11:14:16.261Z,27.92
2018-09-17T11:17:16.405Z,29.68
2018-09-17T11:20:16.234Z,27.77
2018-09-17T11:23:16.187Z,27.88
2018-09-17T11:26:16.142Z,27.18
2018-09-17T11:29:16.131Z,26.75
2018-09-17T11:32:16.084Z,27.83
2018-09-17T11:35:16.059Z,26.76
2018-09-17T11:38:16.020Z,28.30
2018-09-17T11:41:16.059Z,27.67
2018-09-17T11:44:15.971Z,26.23
2018-09-17T11:47:15.938Z,24.46
2018-09-17T11:50:15.916Z,25.93
2018-09-17T11:53:15.888Z,26.12
2018-09-17T11:56:15.845Z,27.43
2018-09-17T11:59:15.812Z,28.34
2018-09-17T12:02:15.878Z,28.63
2018-09-17T12:05:15.767Z,28.93
2018-09-17T12:08:15.729Z,30.32
2018-09-17T12:11:15.684Z,29.57
2018-09-17T12:14:15.663Z,30.76
2018-09-17T12:17:15.650Z,29.09
2018-09-17T12:20:15.606Z,30.04
2018-09-17T12:23:15.566Z,29.83
2018-09-17T12:26:15.541Z,29.61
2018-09-17T12:29:15.517Z,28.65
2018-09-17T12:32:15.491Z,28.83
2018-09-17T12:35:15.453Z,30.04
2018-09-17T12:38:15.386Z,31.03
2018-09-17T12:41:15.373Z,30.49
2018-09-17T12:44:15.338Z,30.24
2018-09-17T12:47:15.312Z,29.63
2018-09-17T12:50:15.258Z,28.82
2018-09-17T12:53:15.262Z,29.09
2018-09-17T12:56:15.228Z,27.37
2018-09-17T12:59:15.171Z,27.08
2018-09-17T13:02:15.150Z,26.79
2018-09-17T13:05:15.139Z,23.05
2018-09-17T13:08:15.082Z,23.54
2018-09-17T13:11:15.070Z,23.94
2018-09-17T13:14:15.150Z,23.35
2018-09-17T13:17:15.032Z,23.94
2018-09-17T13:20:15.012Z,22.27
2018-09-17T13:23:14.977Z,23.93
2018-09-17T13:26:14.962Z,23.47
2018-09-17T13:29:14.982Z,24.27
2018-09-17T13:32:14.858Z,22.67
2018-09-17T13:35:14.820Z,24.41
2018-09-17T13:38:14.813Z,23.77
2018-09-17T13:41:14.793Z,24.33
2018-09-17T13:44:14.738Z,22.85
2018-09-17T13:47:14.728Z,22.56
2018-09-17T13:50:14.707Z,24.11
2018-09-17T13:53:14.814Z,23.74
2018-09-17T13:56:14.651Z,23.92
2018-09-17T13:59:14.632Z,23.06
2018-09-17T14:02:14.537Z,23.14
2018-09-17T14:05:14.496Z,22.23
2018-09-17T14:08:14.470Z,22.67
2018-09-17T14:11:14.427Z,21.86
2018-09-17T14:14:14.398Z,22.14
2018-09-17T14:17:14.398Z,22.03
2018-09-17T14:20:14.342Z,20.84
2018-09-17T14:23:14.318Z,23.22
2018-09-17T14:26:14.320Z,23.58
2018-09-17T14:29:14.288Z,25.57
2018-09-17T14:32:14.300Z,23.88
2018-09-17T14:35:14.340Z,24.47
2018-09-17T14:38:14.194Z,23.97
2018-09-17T14:41:14.155Z,24.38
2018-09-17T14:44:14.123Z,24.15
2018-09-17T14:47:14.057Z,23.74
2018-09-17T14:50:14.119Z,23.78
2018-09-17T14:53:14.000Z,25.07
2018-09-17T14:56:14.018Z,25.35
2018-09-17T14:59:13.917Z,23.75
2018-09-17T15:02:13.932Z,24.27
2018-09-17T15:05:13.891Z,23.99
2018-09-17T15:08:13.978Z,24.68
2018-09-17T15:11:13.829Z,23.97
2018-09-17T15:14:13.787Z,24.26
2018-09-17T15:17:13.768Z,23.96
2018-09-17T15:20:13.790Z,25.27
2018-09-17T15:23:15.320Z,24.19
2018-09-17T15:26:14.696Z,24.88
2018-09-17T15:29:13.604Z,25.46
2018-09-17T15:32:13.692Z,26.18
2018-09-17T15:35:13.561Z,27.34
2018-09-17T15:38:13.629Z,26.08
2018-09-17T15:41:13.628Z,27.50
2018-09-17T15:44:13.481Z,29.25
2018-09-17T15:47:13.430Z,27.09
2018-09-17T15:50:13.483Z,29.68
2018-09-17T15:53:13.348Z,31.47
2018-09-17T15:56:13.350Z,32.18
2018-09-17T15:59:13.280Z,32.07
2018-09-17T16:02:13.237Z,31.78
2018-09-17T16:05:13.205Z,30.94
2018-09-17T16:08:13.174Z,29.55
2018-09-17T16:11:13.135Z,30.16
2018-09-17T16:14:13.202Z,30.34
2018-09-17T16:17:13.145Z,32.14
2018-09-17T16:20:13.034Z,32.19
2018-09-17T16:23:12.992Z,32.59
2018-09-17T16:26:12.984Z,33.09
2018-09-17T16:29:12.931Z,33.09
2018-09-17T16:32:12.895Z,33.39
2018-09-17T16:35:12.881Z,34.88
2018-09-17T16:38:12.838Z,35.37
2018-09-17T16:41:12.803Z,36.13
2018-09-17T16:44:12.770Z,37.26
2018-09-17T16:47:12.815Z,38.68
2018-09-17T16:50:12.703Z,38.71
2018-09-17T16:53:12.722Z,40.52
2018-09-17T16:56:12.607Z,41.34
2018-09-17T16:59:12.623Z,43.46
2018-09-17T17:02:12.537Z,41.69
2018-09-17T17:05:12.535Z,43.27
2018-09-17T17:08:12.473Z,43.27
2018-09-17T17:11:12.512Z,44.18
2018-09-17T17:14:12.429Z,42.83
2018-09-17T17:17:12.391Z,44.42
2018-09-17T17:20:12.339Z,46.36
2018-09-17T17:23:12.334Z,46.62
2018-09-17T17:26:14.055Z,48.94
2018-09-17T17:29:12.249Z,48.99
2018-09-17T17:32:12.227Z,51.04
2018-09-17T17:35:12.205Z,52.84
2018-09-17T17:38:12.133Z,53.07
2018-09-17T17:41:12.145Z,55.93
2018-09-17T17:44:12.100Z,57.28
2018-09-17T17:47:12.467Z,57.61
2018-09-17T17:50:12.076Z,57.14
2018-09-17T17:53:12.022Z,57.77
2018-09-17T17:56:11.927Z,60.61
2018-09-17T17:59:11.940Z,59.30
2018-09-17T18:02:13.693Z,60.61
2018-09-17T18:05:11.892Z,59.43
2018-09-17T18:08:11.832Z,61.54
2018-09-17T18:11:11.796Z,61.07
2018-09-17T18:14:11.740Z,63.42
2018-09-17T18:17:11.710Z,63.14
2018-09-17T18:20:11.673Z,63.04
2018-09-17T18:23:11.675Z,64.05
2018-09-17T18:26:11.593Z,64.15
2018-09-17T18:29:11.728Z,65.49
2018-09-17T18:32:11.524Z,64.41
2018-09-17T18:35:11.508Z,65.42
2018-09-17T18:38:11.468Z,65.01
2018-09-17T18:41:11.523Z,65.45
2018-09-17T18:44:11.387Z,64.31
2018-09-17T18:47:11.384Z,63.50
2018-09-17T18:50:11.319Z,63.70
2018-09-17T18:53:11.308Z,64.54
2018-09-17T18:56:11.306Z,65.38
2018-09-17T18:59:11.238Z,66.22
2018-09-17T19:02:11.207Z,63.26
2018-09-17T19:05:11.464Z,61.72
2018-09-17T19:08:11.152Z,61.32
2018-09-17T19:11:11.108Z,61.85
2018-09-17T19:14:11.043Z,60.41
2018-09-17T19:17:11.040Z,61.11
2018-09-17T19:20:11.141Z,60.71
2018-09-17T19:23:10.969Z,60.41
2018-09-17T19:26:10.919Z,61.24
2018-09-17T19:29:12.816Z,61.14
2018-09-17T19:32:10.864Z,60.53
2018-09-17T19:35:10.870Z,61.11
2018-09-17T19:38:10.821Z,61.44
2018-09-17T19:41:10.786Z,61.44
2018-09-17T19:44:10.781Z,64.10
2018-09-17T19:47:10.739Z,65.17
2018-09-17T19:50:10.775Z,66.04
2018-09-17T19:53:10.667Z,65.84
2018-09-17T19:56:10.599Z,67.59
2018-09-17T19:59:10.592Z,67.39
2018-09-17T20:02:10.522Z,64.29
2018-09-17T20:05:10.488Z,61.94
2018-09-17T20:08:10.447Z,61.51
2018-09-17T20:11:10.727Z,60.36
2018-09-17T20:14:10.388Z,63.25
2018-09-17T20:17:10.393Z,64.83
2018-09-17T20:20:10.318Z,64.38
2018-09-17T20:23:10.367Z,64.18
2018-09-17T20:26:10.245Z,61.32
2018-09-17T20:29:10.227Z,61.21
2018-09-17T20:32:10.191Z,61.99
2018-09-17T20:35:10.195Z,61.19
2018-09-17T20:38:10.135Z,61.52
2018-09-17T20:41:10.097Z,63.54
2018-09-17T20:44:10.034Z,62.12
2018-09-17T20:47:10.038Z,62.63
2018-09-17T20:50:09.963Z,62.12
2018-09-17T20:53:09.994Z,61.39
2018-09-17T20:56:09.997Z,60.88
2018-09-17T20:59:09.877Z,59.74
2018-09-17T21:02:09.835Z,61.29
2018-09-17T21:05:09.816Z,61.41
2018-09-17T21:08:09.808Z,63.47
2018-09-17T21:11:09.748Z,63.60
2018-09-17T21:14:09.714Z,64.95
2018-09-17T21:17:09.678Z,65.05
2018-09-17T21:20:09.643Z,65.45
2018-09-17T21:23:09.606Z,65.25
2018-09-17T21:26:10.117Z,65.86
2018-09-17T21:29:10.236Z,65.05
2018-09-17T21:32:09.593Z,63.60
2018-09-17T21:35:10.071Z,63.90
2018-09-17T21:38:09.411Z,64.28
2018-09-17T21:41:09.856Z,62.05
2018-09-17T21:44:09.558Z,62.15
2018-09-17T21:47:09.387Z,61.85
2018-09-17T21:50:09.279Z,61.52
2018-09-17T21:53:11.210Z,62.02
2018-09-17T21:56:10.325Z,61.19
2018-09-17T21:59:09.199Z,61.19
2018-09-17T22:02:09.194Z,62.02
2018-09-17T22:05:09.177Z,62.05
2018-09-17T22:08:09.083Z,63.17
2018-09-17T22:11:09.097Z,63.37
2018-09-17T22:14:09.007Z,64.01
2018-09-17T22:17:08.998Z,65.05
2018-09-17T22:20:09.973Z,65.28
2018-09-17T22:23:08.916Z,65.45
2018-09-17T22:26:08.911Z,64.95
2018-09-17T22:29:08.972Z,65.15
2018-09-17T22:32:08.844Z,64.75
2018-09-17T22:35:08.845Z,64.11
2018-09-17T22:38:08.757Z,64.01
2018-09-17T22:41:08.728Z,64.72
2018-09-17T22:44:08.701Z,64.21
2018-09-17T22:47:08.677Z,64.01
2018-09-17T22:50:08.604Z,64.21
2018-09-17T22:53:09.585Z,63.40
2018-09-17T22:56:08.526Z,63.70
2018-09-17T22:59:08.528Z,64.18
2018-09-17T23:02:08.454Z,65.22
2018-09-17T23:05:08.444Z,65.86
2018-09-17T23:08:08.395Z,66.47
2018-09-17T23:11:08.384Z,66.80
2018-09-17T23:14:08.322Z,66.60
2018-09-17T23:17:08.317Z,65.76
2018-09-17T23:20:08.255Z,65.73
2018-09-17T23:23:08.253Z,65.42
2018-09-17T23:26:08.208Z,65.96
2018-09-17T23:29:08.188Z,66.97
2018-09-17T23:32:08.125Z,67.61
2018-09-17T23:35:08.094Z,67.82
2018-09-17T23:38:08.079Z,66.91
2018-09-17T23:41:08.096Z,66.77
2018-09-17T23:44:08.026Z,66.57
2018-09-17T23:47:07.970Z,66.88
2018-09-17T23:50:07.954Z,66.37
2018-09-17T23:53:09.716Z,66.84
2018-09-17T23:56:07.889Z,65.93
2018-09-17T23:59:07.880Z,66.84
